sensor_id;sensor_type;location;lat;lon;timestamp;P1;durP1;ratioP1;P2;durP2;ratioP2
46505;SDS011;32220;49.808;9.968;2024-01-30T09:03:55;20.07;;;13.03;;
46505;SDS011;32220;49.808;9.968;2024-01-30T09:06:23;20.70;;;14.07;;
46505;SDS011;32220;49.808;9.968;2024-01-30T09:08:52;18.77;;;12.97;;
46505;SDS011;32220;49.808;9.968;2024-01-30T09:11:19;19.47;;;12.87;;
46505;SDS011;32220;49.808;9.968;2024-01-30T09:13:47;16.97;;;11.70;;
46505;SDS011;32220;49.808;9.968;2024-01-30T09:16:14;17.90;;;12.23;;
46505;SDS011;32220;49.808;9.968;2024-01-30T09:18:42;16.47;;;12.47;;
46505;SDS011;32220;49.808;9.968;2024-01-30T09:21:11;17.40;;;12.17;;
46505;SDS011;32220;49.808;9.968;2024-01-30T09:23:39;19.03;;;13.00;;
46505;SDS011;32220;49.808;9.968;2024-01-30T09:26:06;14.80;;;11.37;;
46505;SDS011;32220;49.808;9.968;2024-01-30T09:28:34;15.43;;;10.87;;
46505;SDS011;32220;49.808;9.968;2024-01-30T09:31:02;19.27;;;11.77;;
46505;SDS011;32220;49.808;9.968;2024-01-30T09:33:29;15.03;;;11.10;;
46505;SDS011;32220;49.808;9.968;2024-01-30T09:35:57;15.93;;;10.87;;
46505;SDS011;32220;49.808;9.968;2024-01-30T09:38:26;14.27;;;11.50;;
46505;SDS011;32220;49.808;9.968;2024-01-30T09:40:53;18.17;;;11.70;;
46505;SDS011;32220;49.808;9.968;2024-01-30T09:43:23;16.27;;;11.77;;
46505;SDS011;32220;49.808;9.968;2024-01-30T09:45:50;16.30;;;11.80;;
46505;SDS011;32220;49.808;9.968;2024-01-30T09:48:20;15.97;;;12.03;;
46505;SDS011;32220;49.808;9.968;2024-01-30T09:50:49;16.03;;;11.90;;
46505;SDS011;32220;49.808;9.968;2024-01-30T09:53:17;14.10;;;10.93;;
46505;SDS011;32220;49.808;9.968;2024-01-30T09:55:47;15.87;;;12.13;;
46505;SDS011;32220;49.808;9.968;2024-01-30T09:58:17;19.03;;;12.07;;
46505;SDS011;32220;49.808;9.968;2024-01-30T10:00:45;15.00;;;12.70;;
46505;SDS011;32220;49.808;9.968;2024-01-30T10:03:13;15.37;;;11.03;;
46505;SDS011;32220;49.808;9.968;2024-01-30T10:05:41;15.97;;;11.53;;
46505;SDS011;32220;49.808;9.968;2024-01-30T10:08:13;15.90;;;10.70;;
46505;SDS011;32220;49.808;9.968;2024-01-30T10:10:45;15.73;;;11.37;;
46505;SDS011;32220;49.808;9.968;2024-01-30T10:13:15;15.87;;;11.67;;
46505;SDS011;32220;49.808;9.968;2024-01-30T10:15:43;13.83;;;10.80;;
46505;SDS011;32220;49.808;9.968;2024-01-30T10:18:11;12.60;;;10.70;;
46505;SDS011;32220;49.808;9.968;2024-01-30T10:20:38;14.23;;;11.07;;
46505;SDS011;32220;49.808;9.968;2024-01-30T10:23:06;15.60;;;10.93;;
46505;SDS011;32220;49.808;9.968;2024-01-30T10:25:34;17.00;;;11.10;;
46505;SDS011;32220;49.808;9.968;2024-01-30T10:28:02;14.60;;;11.70;;
46505;SDS011;32220;49.808;9.968;2024-01-30T10:30:31;18.53;;;11.80;;
46505;SDS011;32220;49.808;9.968;2024-01-30T10:32:59;14.27;;;11.57;;
46505;SDS011;32220;49.808;9.968;2024-01-30T10:35:26;14.73;;;11.07;;
46505;SDS011;32220;49.808;9.968;2024-01-30T10:37:54;16.00;;;11.97;;
46505;SDS011;32220;49.808;9.968;2024-01-30T10:40:26;15.17;;;11.70;;
46505;SDS011;32220;49.808;9.968;2024-01-30T10:42:55;15.73;;;12.43;;
46505;SDS011;32220;49.808;9.968;2024-01-30T10:45:23;15.40;;;11.60;;
46505;SDS011;32220;49.808;9.968;2024-01-30T10:47:55;13.20;;;11.57;;
46505;SDS011;32220;49.808;9.968;2024-01-30T10:50:24;14.90;;;12.07;;
46505;SDS011;32220;49.808;9.968;2024-01-30T10:52:53;16.70;;;12.13;;
46505;SDS011;32220;49.808;9.968;2024-01-30T10:55:21;14.13;;;11.37;;
46505;SDS011;32220;49.808;9.968;2024-01-30T10:57:50;14.47;;;11.30;;
46505;SDS011;32220;49.808;9.968;2024-01-30T11:00:19;13.13;;;10.97;;
46505;SDS011;32220;49.808;9.968;2024-01-30T11:02:49;14.37;;;11.27;;
46505;SDS011;32220;49.808;9.968;2024-01-30T11:05:24;14.40;;;9.93;;
46505;SDS011;32220;49.808;9.968;2024-01-30T11:07:52;15.60;;;10.37;;
46505;SDS011;32220;49.808;9.968;2024-01-30T11:10:20;13.60;;;10.40;;
46505;SDS011;32220;49.808;9.968;2024-01-30T11:12:51;11.77;;;10.10;;
46505;SDS011;32220;49.808;9.968;2024-01-30T11:15:19;14.07;;;10.97;;
46505;SDS011;32220;49.808;9.968;2024-01-30T11:17:50;11.37;;;9.93;;
46505;SDS011;32220;49.808;9.968;2024-01-30T11:20:22;12.63;;;10.13;;
46505;SDS011;32220;49.808;9.968;2024-01-30T11:22:54;12.60;;;10.93;;
46505;SDS011;32220;49.808;9.968;2024-01-30T11:25:23;12.70;;;10.47;;
46505;SDS011;32220;49.808;9.968;2024-01-30T11:27:53;11.77;;;10.03;;
46505;SDS011;32220;49.808;9.968;2024-01-30T11:30:22;11.33;;;10.13;;
46505;SDS011;32220;49.808;9.968;2024-01-30T11:33:00;12.47;;;10.43;;
46505;SDS011;32220;49.808;9.968;2024-01-30T11:35:30;13.93;;;10.23;;
46505;SDS011;32220;49.808;9.968;2024-01-30T11:38:01;12.90;;;10.00;;
46505;SDS011;32220;49.808;9.968;2024-01-30T11:40:33;11.83;;;9.50;;
46505;SDS011;32220;49.808;9.968;2024-01-30T11:43:06;10.70;;;9.37;;
46505;SDS011;32220;49.808;9.968;2024-01-30T11:45:34;14.07;;;10.43;;
46505;SDS011;32220;49.808;9.968;2024-01-30T11:48:03;11.50;;;9.50;;
46505;SDS011;32220;49.808;9.968;2024-01-30T11:50:33;12.83;;;10.23;;
46505;SDS011;32220;49.808;9.968;2024-01-30T11:53:02;14.60;;;10.70;;
46505;SDS011;32220;49.808;9.968;2024-01-30T11:55:31;14.10;;;10.77;;
46505;SDS011;32220;49.808;9.968;2024-01-30T11:58:01;12.23;;;10.63;;
46505;SDS011;32220;49.808;9.968;2024-01-30T12:00:30;14.33;;;10.63;;
46505;SDS011;32220;49.808;9.968;2024-01-30T12:02:59;13.90;;;10.17;;
46505;SDS011;32220;49.808;9.968;2024-01-30T12:05:28;11.83;;;10.20;;
46505;SDS011;32220;49.808;9.968;2024-01-30T12:07:55;14.83;;;11.77;;
46505;SDS011;32220;49.808;9.968;2024-01-30T12:10:26;11.63;;;10.37;;
46505;SDS011;32220;49.808;9.968;2024-01-30T12:12:54;12.97;;;11.23;;
46505;SDS011;32220;49.808;9.968;2024-01-30T12:15:23;14.20;;;10.53;;
46505;SDS011;32220;49.808;9.968;2024-01-30T12:17:52;14.43;;;10.70;;
46505;SDS011;32220;49.808;9.968;2024-01-30T12:20:19;10.70;;;9.60;;
46505;SDS011;32220;49.808;9.968;2024-01-30T12:22:47;14.30;;;10.60;;
46505;SDS011;32220;49.808;9.968;2024-01-30T12:25:17;14.07;;;11.60;;
46505;SDS011;32220;49.808;9.968;2024-01-30T12:27:47;14.60;;;10.50;;
46505;SDS011;32220;49.808;9.968;2024-01-30T12:30:17;12.50;;;10.93;;
46505;SDS011;32220;49.808;9.968;2024-01-30T12:32:46;15.33;;;11.23;;
46505;SDS011;32220;49.808;9.968;2024-01-30T12:35:18;14.97;;;11.70;;
46505;SDS011;32220;49.808;9.968;2024-01-30T12:37:47;16.07;;;11.30;;
46505;SDS011;32220;49.808;9.968;2024-01-30T12:40:15;15.00;;;10.80;;
46505;SDS011;32220;49.808;9.968;2024-01-30T12:42:45;13.63;;;10.37;;
46505;SDS011;32220;49.808;9.968;2024-01-30T12:45:15;13.40;;;10.30;;
46505;SDS011;32220;49.808;9.968;2024-01-30T12:47:46;15.10;;;10.40;;
46505;SDS011;32220;49.808;9.968;2024-01-30T12:50:13;13.50;;;9.87;;
46505;SDS011;32220;49.808;9.968;2024-01-30T12:52:42;13.53;;;11.10;;
46505;SDS011;32220;49.808;9.968;2024-01-30T12:55:10;12.10;;;10.63;;
46505;SDS011;32220;49.808;9.968;2024-01-30T12:57:37;13.07;;;10.90;;
46505;SDS011;32220;49.808;9.968;2024-01-30T13:00:07;14.90;;;10.90;;
46505;SDS011;32220;49.808;9.968;2024-01-30T13:02:35;12.20;;;10.17;;
46505;SDS011;32220;49.808;9.968;2024-01-30T13:05:04;11.37;;;10.07;;
46505;SDS011;32220;49.808;9.968;2024-01-30T13:07:31;10.50;;;9.30;;
46505;SDS011;32220;49.808;9.968;2024-01-30T13:09:59;13.47;;;10.23;;
46505;SDS011;32220;49.808;9.968;2024-01-30T13:12:29;12.30;;;10.27;;
46505;SDS011;32220;49.808;9.968;2024-01-30T13:14:59;13.53;;;9.83;;
46505;SDS011;32220;49.808;9.968;2024-01-30T13:17:32;11.80;;;10.47;;
46505;SDS011;32220;49.808;9.968;2024-01-30T13:20:00;12.87;;;10.40;;
46505;SDS011;32220;49.808;9.968;2024-01-30T13:22:28;13.80;;;10.77;;
46505;SDS011;32220;49.808;9.968;2024-01-30T13:24:56;13.17;;;10.17;;
46505;SDS011;32220;49.808;9.968;2024-01-30T13:27:24;13.37;;;10.83;;
46505;SDS011;32220;49.808;9.968;2024-01-30T13:29:52;12.67;;;9.93;;
46505;SDS011;32220;49.808;9.968;2024-01-30T13:32:19;12.10;;;10.37;;
46505;SDS011;32220;49.808;9.968;2024-01-30T13:34:48;13.03;;;10.33;;
46505;SDS011;32220;49.808;9.968;2024-01-30T13:37:16;14.13;;;10.83;;
46505;SDS011;32220;49.808;9.968;2024-01-30T13:39:44;12.67;;;10.40;;
46505;SDS011;32220;49.808;9.968;2024-01-30T13:42:11;14.20;;;10.33;;
46505;SDS011;32220;49.808;9.968;2024-01-30T13:44:39;11.07;;;9.40;;
46505;SDS011;32220;49.808;9.968;2024-01-30T13:47:06;13.23;;;10.57;;
46505;SDS011;32220;49.808;9.968;2024-01-30T13:49:34;12.30;;;9.37;;
46505;SDS011;32220;49.808;9.968;2024-01-30T13:52:03;11.27;;;9.47;;
46505;SDS011;32220;49.808;9.968;2024-01-30T13:54:31;10.60;;;8.87;;
46505;SDS011;32220;49.808;9.968;2024-01-30T13:56:59;11.50;;;9.03;;
46505;SDS011;32220;49.808;9.968;2024-01-30T13:59:27;12.47;;;9.57;;
46505;SDS011;32220;49.808;9.968;2024-01-30T14:01:55;10.60;;;8.83;;
46505;SDS011;32220;49.808;9.968;2024-01-30T14:04:22;12.33;;;9.57;;
46505;SDS011;32220;49.808;9.968;2024-01-30T14:06:50;12.87;;;10.47;;
46505;SDS011;32220;49.808;9.968;2024-01-30T14:09:19;14.10;;;10.37;;
46505;SDS011;32220;49.808;9.968;2024-01-30T14:11:47;11.57;;;9.80;;
46505;SDS011;32220;49.808;9.968;2024-01-30T14:14:14;13.07;;;9.83;;
46505;SDS011;32220;49.808;9.968;2024-01-30T14:16:42;11.53;;;9.13;;
46505;SDS011;32220;49.808;9.968;2024-01-30T14:19:09;11.20;;;8.83;;
46505;SDS011;32220;49.808;9.968;2024-01-30T14:21:37;12.87;;;9.60;;
46505;SDS011;32220;49.808;9.968;2024-01-30T14:24:05;10.67;;;8.97;;
46505;SDS011;32220;49.808;9.968;2024-01-30T14:26:34;12.50;;;9.40;;
46505;SDS011;32220;49.808;9.968;2024-01-30T14:29:02;11.23;;;8.70;;
46505;SDS011;32220;49.808;9.968;2024-01-30T14:31:30;11.43;;;9.33;;
46505;SDS011;32220;49.808;9.968;2024-01-30T14:33:57;12.03;;;9.37;;
46505;SDS011;32220;49.808;9.968;2024-01-30T14:36:26;11.37;;;9.27;;
46505;SDS011;32220;49.808;9.968;2024-01-30T14:38:54;10.40;;;8.40;;
46505;SDS011;32220;49.808;9.968;2024-01-30T14:41:22;10.37;;;8.77;;
46505;SDS011;32220;49.808;9.968;2024-01-30T14:43:51;9.30;;;8.00;;
46505;SDS011;32220;49.808;9.968;2024-01-30T14:46:19;13.77;;;8.77;;
46505;SDS011;32220;49.808;9.968;2024-01-30T14:48:47;9.47;;;8.47;;
46505;SDS011;32220;49.808;9.968;2024-01-30T14:51:17;10.67;;;8.10;;
46505;SDS011;32220;49.808;9.968;2024-01-30T14:53:46;10.03;;;7.83;;
46505;SDS011;32220;49.808;9.968;2024-01-30T14:56:14;9.57;;;7.70;;
46505;SDS011;32220;49.808;9.968;2024-01-30T14:58:42;10.87;;;9.10;;
46505;SDS011;32220;49.808;9.968;2024-01-30T15:01:11;10.83;;;9.00;;
46505;SDS011;32220;49.808;9.968;2024-01-30T15:03:39;12.50;;;9.77;;
46505;SDS011;32220;49.808;9.968;2024-01-30T15:06:08;15.30;;;10.40;;
46505;SDS011;32220;49.808;9.968;2024-01-30T15:08:36;12.83;;;9.37;;
46505;SDS011;32220;49.808;9.968;2024-01-30T15:11:03;14.53;;;10.57;;
46505;SDS011;32220;49.808;9.968;2024-01-30T15:13:31;12.13;;;9.83;;
46505;SDS011;32220;49.808;9.968;2024-01-30T15:15:58;12.57;;;9.60;;
46505;SDS011;32220;49.808;9.968;2024-01-30T15:18:30;13.70;;;9.80;;
46505;SDS011;32220;49.808;9.968;2024-01-30T15:20:58;12.20;;;9.00;;
46505;SDS011;32220;49.808;9.968;2024-01-30T15:23:26;14.50;;;9.67;;
46505;SDS011;32220;49.808;9.968;2024-01-30T15:25:53;13.10;;;9.23;;
46505;SDS011;32220;49.808;9.968;2024-01-30T15:28:22;11.17;;;9.43;;
46505;SDS011;32220;49.808;9.968;2024-01-30T15:31:01;11.80;;;8.90;;
46505;SDS011;32220;49.808;9.968;2024-01-30T15:33:29;12.83;;;8.30;;
46505;SDS011;32220;49.808;9.968;2024-01-30T15:35:59;13.13;;;8.77;;
46505;SDS011;32220;49.808;9.968;2024-01-30T15:38:27;10.00;;;8.67;;
46505;SDS011;32220;49.808;9.968;2024-01-30T15:40:56;13.17;;;8.77;;
46505;SDS011;32220;49.808;9.968;2024-01-30T15:43:24;14.13;;;9.73;;
46505;SDS011;32220;49.808;9.968;2024-01-30T15:45:53;13.20;;;10.03;;
46505;SDS011;32220;49.808;9.968;2024-01-30T15:48:23;11.13;;;8.93;;
46505;SDS011;32220;49.808;9.968;2024-01-30T15:50:54;11.83;;;9.23;;
46505;SDS011;32220;49.808;9.968;2024-01-30T15:53:22;10.70;;;8.97;;
46505;SDS011;32220;49.808;9.968;2024-01-30T15:55:52;15.13;;;10.80;;
46505;SDS011;32220;49.808;9.968;2024-01-30T15:58:20;11.93;;;8.87;;
46505;SDS011;32220;49.808;9.968;2024-01-30T16:00:48;11.53;;;9.10;;
46505;SDS011;32220;49.808;9.968;2024-01-30T16:03:16;16.13;;;10.70;;
46505;SDS011;32220;49.808;9.968;2024-01-30T16:05:44;14.07;;;9.50;;
46505;SDS011;32220;49.808;9.968;2024-01-30T16:08:13;13.57;;;10.00;;
46505;SDS011;32220;49.808;9.968;2024-01-30T16:10:41;12.50;;;9.43;;
46505;SDS011;32220;49.808;9.968;2024-01-30T16:13:10;12.33;;;9.80;;
46505;SDS011;32220;49.808;9.968;2024-01-30T16:15:38;12.53;;;9.60;;
46505;SDS011;32220;49.808;9.968;2024-01-30T16:18:09;12.60;;;8.60;;
46505;SDS011;32220;49.808;9.968;2024-01-30T16:20:39;13.07;;;9.80;;
46505;SDS011;32220;49.808;9.968;2024-01-30T16:23:14;11.73;;;8.90;;
46505;SDS011;32220;49.808;9.968;2024-01-30T16:25:43;14.77;;;9.27;;
46505;SDS011;32220;49.808;9.968;2024-01-30T16:28:12;12.97;;;8.77;;
46505;SDS011;32220;49.808;9.968;2024-01-30T16:30:40;19.17;;;12.37;;
46505;SDS011;32220;49.808;9.968;2024-01-30T16:33:08;15.83;;;11.67;;
46505;SDS011;32220;49.808;9.968;2024-01-30T16:35:37;15.87;;;10.70;;
46505;SDS011;32220;49.808;9.968;2024-01-30T16:38:06;12.93;;;9.53;;
46505;SDS011;32220;49.808;9.968;2024-01-30T16:40:35;14.17;;;9.87;;
46505;SDS011;32220;49.808;9.968;2024-01-30T16:43:04;15.40;;;11.00;;
46505;SDS011;32220;49.808;9.968;2024-01-30T16:45:32;13.37;;;10.00;;
46505;SDS011;32220;49.808;9.968;2024-01-30T16:48:00;18.33;;;10.50;;
46505;SDS011;32220;49.808;9.968;2024-01-30T16:50:29;15.57;;;10.97;;
46505;SDS011;32220;49.808;9.968;2024-01-30T16:52:57;12.33;;;9.93;;
46505;SDS011;32220;49.808;9.968;2024-01-30T16:55:25;14.30;;;10.13;;
46505;SDS011;32220;49.808;9.968;2024-01-30T16:57:54;14.37;;;10.13;;
46505;SDS011;32220;49.808;9.968;2024-01-30T17:00:22;17.73;;;10.93;;
46505;SDS011;32220;49.808;9.968;2024-01-30T17:02:50;10.87;;;9.07;;
46505;SDS011;32220;49.808;9.968;2024-01-30T17:05:18;12.67;;;9.87;;
46505;SDS011;32220;49.808;9.968;2024-01-30T17:07:45;14.00;;;10.00;;
46505;SDS011;32220;49.808;9.968;2024-01-30T17:10:14;13.67;;;10.00;;
46505;SDS011;32220;49.808;9.968;2024-01-30T17:12:44;15.03;;;10.73;;
46505;SDS011;32220;49.808;9.968;2024-01-30T17:15:13;14.57;;;10.60;;
46505;SDS011;32220;49.808;9.968;2024-01-30T17:17:42;14.07;;;9.83;;
46505;SDS011;32220;49.808;9.968;2024-01-30T17:20:10;19.00;;;11.47;;
46505;SDS011;32220;49.808;9.968;2024-01-30T17:22:38;13.80;;;10.03;;
46505;SDS011;32220;49.808;9.968;2024-01-30T17:25:06;12.43;;;8.60;;
46505;SDS011;32220;49.808;9.968;2024-01-30T17:27:34;16.23;;;10.33;;
46505;SDS011;32220;49.808;9.968;2024-01-30T17:30:02;11.57;;;8.83;;
46505;SDS011;32220;49.808;9.968;2024-01-30T17:32:32;14.83;;;10.83;;
46505;SDS011;32220;49.808;9.968;2024-01-30T17:35:00;12.40;;;9.77;;
46505;SDS011;32220;49.808;9.968;2024-01-30T17:37:29;13.27;;;9.90;;
46505;SDS011;32220;49.808;9.968;2024-01-30T17:39:56;14.87;;;10.03;;
46505;SDS011;32220;49.808;9.968;2024-01-30T17:42:24;12.90;;;9.47;;
46505;SDS011;32220;49.808;9.968;2024-01-30T17:44:52;13.77;;;10.00;;
46505;SDS011;32220;49.808;9.968;2024-01-30T17:47:19;16.17;;;11.07;;
46505;SDS011;32220;49.808;9.968;2024-01-30T17:49:48;14.93;;;10.37;;
46505;SDS011;32220;49.808;9.968;2024-01-30T17:52:16;13.77;;;9.97;;
46505;SDS011;32220;49.808;9.968;2024-01-30T17:54:44;11.83;;;9.77;;
46505;SDS011;32220;49.808;9.968;2024-01-30T17:57:11;12.50;;;10.40;;
46505;SDS011;32220;49.808;9.968;2024-01-30T17:59:39;14.87;;;9.70;;
46505;SDS011;32220;49.808;9.968;2024-01-30T18:02:08;13.00;;;10.17;;
46505;SDS011;32220;49.808;9.968;2024-01-30T18:04:37;13.30;;;9.60;;
46505;SDS011;32220;49.808;9.968;2024-01-30T18:07:07;13.53;;;9.87;;
46505;SDS011;32220;49.808;9.968;2024-01-30T18:09:35;17.80;;;11.73;;
46505;SDS011;32220;49.808;9.968;2024-01-30T18:12:05;17.40;;;12.03;;
46505;SDS011;32220;49.808;9.968;2024-01-30T18:14:34;17.80;;;12.73;;
46505;SDS011;32220;49.808;9.968;2024-01-30T18:17:02;15.63;;;12.43;;
46505;SDS011;32220;49.808;9.968;2024-01-30T18:19:30;17.73;;;11.53;;
46505;SDS011;32220;49.808;9.968;2024-01-30T18:21:58;18.97;;;13.33;;
46505;SDS011;32220;49.808;9.968;2024-01-30T18:24:27;14.73;;;11.00;;
46505;SDS011;32220;49.808;9.968;2024-01-30T18:26:55;18.23;;;12.03;;
46505;SDS011;32220;49.808;9.968;2024-01-30T18:29:22;18.20;;;11.90;;
46505;SDS011;32220;49.808;9.968;2024-01-30T18:31:51;15.13;;;10.00;;
46505;SDS011;32220;49.808;9.968;2024-01-30T18:34:18;14.77;;;10.40;;
46505;SDS011;32220;49.808;9.968;2024-01-30T18:36:46;15.67;;;10.97;;
46505;SDS011;32220;49.808;9.968;2024-01-30T18:39:14;17.83;;;11.10;;
46505;SDS011;32220;49.808;9.968;2024-01-30T18:41:43;15.80;;;11.73;;
46505;SDS011;32220;49.808;9.968;2024-01-30T18:44:11;18.50;;;12.43;;
46505;SDS011;32220;49.808;9.968;2024-01-30T18:46:38;14.17;;;11.00;;
46505;SDS011;32220;49.808;9.968;2024-01-30T18:49:06;14.70;;;10.63;;
46505;SDS011;32220;49.808;9.968;2024-01-30T18:51:34;12.00;;;10.30;;
46505;SDS011;32220;49.808;9.968;2024-01-30T18:54:01;16.03;;;11.97;;
46505;SDS011;32220;49.808;9.968;2024-01-30T18:56:29;17.93;;;11.03;;
46505;SDS011;32220;49.808;9.968;2024-01-30T18:58:58;18.47;;;11.00;;
46505;SDS011;32220;49.808;9.968;2024-01-30T19:01:26;17.23;;;11.30;;
46505;SDS011;32220;49.808;9.968;2024-01-30T19:03:54;18.23;;;11.60;;
46505;SDS011;32220;49.808;9.968;2024-01-30T19:06:22;20.50;;;13.97;;
46505;SDS011;32220;49.808;9.968;2024-01-30T19:08:49;20.83;;;13.10;;
46505;SDS011;32220;49.808;9.968;2024-01-30T19:11:17;20.23;;;13.77;;
46505;SDS011;32220;49.808;9.968;2024-01-30T19:13:45;16.37;;;12.13;;
46505;SDS011;32220;49.808;9.968;2024-01-30T19:16:15;18.17;;;12.43;;
46505;SDS011;32220;49.808;9.968;2024-01-30T19:18:42;16.37;;;11.47;;
46505;SDS011;32220;49.808;9.968;2024-01-30T19:21:11;17.47;;;11.40;;
46505;SDS011;32220;49.808;9.968;2024-01-30T19:23:39;15.40;;;12.27;;
46505;SDS011;32220;49.808;9.968;2024-01-30T19:26:07;20.23;;;12.40;;
46505;SDS011;32220;49.808;9.968;2024-01-30T19:28:34;16.50;;;10.60;;
46505;SDS011;32220;49.808;9.968;2024-01-30T19:31:02;16.17;;;11.67;;
46505;SDS011;32220;49.808;9.968;2024-01-30T19:33:32;15.73;;;11.13;;
46505;SDS011;32220;49.808;9.968;2024-01-30T19:36:00;15.73;;;11.50;;
46505;SDS011;32220;49.808;9.968;2024-01-30T19:38:27;15.07;;;10.60;;
46505;SDS011;32220;49.808;9.968;2024-01-30T19:40:55;14.10;;;10.50;;
46505;SDS011;32220;49.808;9.968;2024-01-30T19:43:23;16.07;;;11.43;;
46505;SDS011;32220;49.808;9.968;2024-01-30T19:45:51;17.47;;;10.80;;
46505;SDS011;32220;49.808;9.968;2024-01-30T19:48:19;20.13;;;13.33;;
46505;SDS011;32220;49.808;9.968;2024-01-30T19:50:49;16.37;;;13.00;;
46505;SDS011;32220;49.808;9.968;2024-01-30T19:53:16;21.43;;;12.73;;
46505;SDS011;32220;49.808;9.968;2024-01-30T19:55:46;19.33;;;12.50;;
46505;SDS011;32220;49.808;9.968;2024-01-30T19:58:14;20.23;;;13.80;;
46505;SDS011;32220;49.808;9.968;2024-01-30T20:00:42;17.50;;;11.47;;
46505;SDS011;32220;49.808;9.968;2024-01-30T20:03:10;16.10;;;10.13;;
46505;SDS011;32220;49.808;9.968;2024-01-30T20:05:38;17.63;;;12.03;;
46505;SDS011;32220;49.808;9.968;2024-01-30T20:08:07;14.83;;;10.77;;
46505;SDS011;32220;49.808;9.968;2024-01-30T20:10:35;17.50;;;11.83;;
46505;SDS011;32220;49.808;9.968;2024-01-30T20:13:02;20.93;;;13.03;;
46505;SDS011;32220;49.808;9.968;2024-01-30T20:15:30;19.53;;;12.77;;
46505;SDS011;32220;49.808;9.968;2024-01-30T20:17:58;16.07;;;11.10;;
46505;SDS011;32220;49.808;9.968;2024-01-30T20:20:25;18.07;;;12.70;;
46505;SDS011;32220;49.808;9.968;2024-01-30T20:22:53;15.47;;;11.23;;
46505;SDS011;32220;49.808;9.968;2024-01-30T20:25:22;17.33;;;11.50;;
46505;SDS011;32220;49.808;9.968;2024-01-30T20:27:50;17.83;;;12.73;;
46505;SDS011;32220;49.808;9.968;2024-01-30T20:30:17;15.83;;;11.07;;
46505;SDS011;32220;49.808;9.968;2024-01-30T20:32:48;14.47;;;10.80;;
46505;SDS011;32220;49.808;9.968;2024-01-30T20:35:17;14.20;;;10.77;;
46505;SDS011;32220;49.808;9.968;2024-01-30T20:37:47;18.67;;;11.77;;
46505;SDS011;32220;49.808;9.968;2024-01-30T20:40:16;21.80;;;14.50;;
46505;SDS011;32220;49.808;9.968;2024-01-30T20:42:47;19.57;;;12.37;;
46505;SDS011;32220;49.808;9.968;2024-01-30T20:45:15;17.43;;;12.43;;
46505;SDS011;32220;49.808;9.968;2024-01-30T20:47:43;14.23;;;11.43;;
46505;SDS011;32220;49.808;9.968;2024-01-30T20:50:10;17.87;;;12.43;;
46505;SDS011;32220;49.808;9.968;2024-01-30T20:52:38;16.97;;;10.87;;
46505;SDS011;32220;49.808;9.968;2024-01-30T20:55:05;15.83;;;11.57;;
46505;SDS011;32220;49.808;9.968;2024-01-30T20:57:33;15.07;;;10.40;;
46505;SDS011;32220;49.808;9.968;2024-01-30T21:00:05;17.93;;;12.13;;
46505;SDS011;32220;49.808;9.968;2024-01-30T21:02:33;16.47;;;11.50;;
46505;SDS011;32220;49.808;9.968;2024-01-30T21:05:03;18.20;;;13.90;;
46505;SDS011;32220;49.808;9.968;2024-01-30T21:07:31;16.97;;;13.23;;
46505;SDS011;32220;49.808;9.968;2024-01-30T21:09:58;21.40;;;15.30;;
46505;SDS011;32220;49.808;9.968;2024-01-30T21:12:26;14.80;;;12.03;;
46505;SDS011;32220;49.808;9.968;2024-01-30T21:14:54;17.73;;;13.50;;
46505;SDS011;32220;49.808;9.968;2024-01-30T21:17:22;17.27;;;11.50;;
46505;SDS011;32220;49.808;9.968;2024-01-30T21:19:50;18.20;;;12.43;;
46505;SDS011;32220;49.808;9.968;2024-01-30T21:22:17;17.67;;;11.10;;
46505;SDS011;32220;49.808;9.968;2024-01-30T21:24:45;17.47;;;12.43;;
46505;SDS011;32220;49.808;9.968;2024-01-30T21:27:12;18.23;;;11.77;;
46505;SDS011;32220;49.808;9.968;2024-01-30T21:29:41;16.37;;;13.03;;
46505;SDS011;32220;49.808;9.968;2024-01-30T21:32:09;16.03;;;12.13;;
46505;SDS011;32220;49.808;9.968;2024-01-30T21:34:38;19.60;;;13.13;;
46505;SDS011;32220;49.808;9.968;2024-01-30T21:37:06;16.93;;;12.37;;
46505;SDS011;32220;49.808;9.968;2024-01-30T21:39:33;17.50;;;11.77;;
